createdAt,value
2018-05-13T00:02:12.605Z,58.98
2018-05-13T00:04:39.052Z,59.68
2018-05-13T00:07:05.459Z,60.65
2018-05-13T00:09:31.910Z,62.26
2018-05-13T00:11:58.297Z,63.14
2018-05-13T00:14:24.711Z,64.33
2018-05-13T00:16:51.876Z,65.64
2018-05-13T00:19:18.294Z,64.39
2018-05-13T00:21:45.437Z,65.33
2018-05-13T00:24:12.592Z,67.37
2018-05-13T00:26:39.755Z,67.55
2018-05-13T00:29:06.187Z,69.60
2018-05-13T00:31:32.611Z,68.35
2018-05-13T00:33:58.971Z,67.09
2018-05-13T00:36:25.439Z,68.41
2018-05-13T00:38:51.863Z,70.85
2018-05-13T00:41:18.302Z,71.73
2018-05-13T00:43:44.734Z,71.63
2018-05-13T00:46:11.097Z,71.95
2018-05-13T00:48:37.485Z,73.65
2018-05-13T00:51:03.906Z,73.35
2018-05-13T00:53:30.334Z,74.39
2018-05-13T00:55:56.893Z,74.85
2018-05-13T00:58:23.307Z,73.92
2018-05-13T01:00:49.717Z,72.22
2018-05-13T01:03:16.119Z,72.10
2018-05-13T01:05:42.551Z,73.00
2018-05-13T01:08:10.064Z,73.79
2018-05-13T01:10:36.439Z,73.50
2018-05-13T01:13:02.905Z,73.22
2018-05-13T01:15:29.614Z,73.94
2018-05-13T01:17:56.051Z,73.39
2018-05-13T01:20:22.418Z,73.29
2018-05-13T01:22:48.799Z,73.42
2018-05-13T01:25:15.199Z,74.12
2018-05-13T01:27:41.653Z,74.62
2018-05-13T01:30:08.907Z,75.43
2018-05-13T01:32:35.665Z,74.92
2018-05-13T01:35:02.122Z,74.89
2018-05-13T01:37:28.536Z,75.10
2018-05-13T01:39:54.927Z,75.42
2018-05-13T01:42:22.071Z,75.77
2018-05-13T01:44:48.446Z,75.56
2018-05-13T01:47:14.796Z,76.06
2018-05-13T01:49:41.128Z,76.32
2018-05-13T01:52:07.473Z,75.05
2018-05-13T01:54:33.863Z,75.52
2018-05-13T01:57:00.315Z,75.09
2018-05-13T01:59:26.689Z,75.73
2018-05-13T02:01:53.066Z,75.96
2018-05-13T02:04:19.387Z,75.28
2018-05-13T02:06:46.517Z,75.88
2018-05-13T02:09:13.662Z,74.86
2018-05-13T02:11:40.757Z,74.20
2018-05-13T02:14:07.138Z,76.67
2018-05-13T02:16:39.201Z,79.09
2018-05-13T02:19:05.585Z,80.32
2018-05-13T02:21:36.589Z,80.79
2018-05-13T02:24:03.236Z,81.90
2018-05-13T02:26:29.573Z,81.73
2018-05-13T02:28:55.931Z,81.62
2018-05-13T02:31:22.283Z,81.07
2018-05-13T02:33:48.633Z,80.54
2018-05-13T02:36:15.026Z,80.14
2018-05-13T02:38:41.409Z,80.39
2018-05-13T02:41:07.747Z,80.36
2018-05-13T02:43:34.130Z,80.65
2018-05-13T02:46:00.487Z,80.08
2018-05-13T02:48:27.654Z,80.26
2018-05-13T02:50:54.064Z,80.72
2018-05-13T02:53:21.165Z,81.04
2018-05-13T02:55:47.553Z,81.20
2018-05-13T02:58:13.884Z,80.64
2018-05-13T03:00:40.377Z,80.30
2018-05-13T03:03:06.920Z,80.44
2018-05-13T03:05:33.236Z,80.44
2018-05-13T03:07:59.602Z,79.88
2018-05-13T03:10:26.686Z,79.90
2018-05-13T03:12:53.035Z,79.48
2018-05-13T03:15:19.524Z,79.99
2018-05-13T03:17:45.856Z,79.21
2018-05-13T03:20:12.230Z,79.80
2018-05-13T03:22:38.629Z,80.24
2018-05-13T03:25:05.006Z,79.85
2018-05-13T03:27:31.361Z,79.60
2018-05-13T03:29:57.695Z,78.37
2018-05-13T03:32:24.783Z,77.61
2018-05-13T03:34:51.222Z,77.33
2018-05-13T03:37:17.550Z,77.61
2018-05-13T03:39:44.034Z,78.54
2018-05-13T03:42:11.122Z,77.34
2018-05-13T03:44:37.457Z,78.04
2018-05-13T03:47:03.801Z,79.01
2018-05-13T03:49:30.173Z,79.23
2018-05-13T03:51:57.369Z,77.64
2018-05-13T03:54:23.808Z,77.14
2018-05-13T03:56:50.945Z,77.71
2018-05-13T03:59:17.336Z,78.59
2018-05-13T04:01:44.618Z,78.56
2018-05-13T04:04:11.019Z,78.39
2018-05-13T04:06:37.375Z,77.54
2018-05-13T04:09:22.174Z,78.11
2018-05-13T04:12:07.031Z,79.36
2018-05-13T04:14:52.558Z,79.69
2018-05-13T04:17:18.887Z,79.12
2018-05-13T04:19:45.270Z,79.63
2018-05-13T04:22:11.633Z,80.78
2018-05-13T04:24:38.738Z,80.76
2018-05-13T04:27:05.090Z,79.82
2018-05-13T04:29:31.415Z,79.91
2018-05-13T04:31:57.749Z,80.38
2018-05-13T04:34:24.229Z,80.63
2018-05-13T04:36:50.943Z,80.42
2018-05-13T04:39:18.042Z,81.09
2018-05-13T04:41:44.403Z,81.65
2018-05-13T04:44:10.754Z,81.21
2018-05-13T04:46:37.852Z,81.62
2018-05-13T04:49:04.196Z,81.77
2018-05-13T04:51:30.529Z,81.75
2018-05-13T04:53:56.903Z,81.98
2018-05-13T04:56:23.271Z,81.82
2018-05-13T04:58:49.709Z,81.88
2018-05-13T05:01:16.138Z,82.10
2018-05-13T05:03:42.503Z,83.07
2018-05-13T05:06:08.855Z,81.92
2018-05-13T05:08:35.327Z,82.39
2018-05-13T05:11:01.767Z,83.46
2018-05-13T05:13:28.156Z,83.13
2018-05-13T05:15:54.686Z,83.36
2018-05-13T05:18:21.070Z,83.33
2018-05-13T05:20:47.450Z,83.40
2018-05-13T05:23:13.815Z,83.01
2018-05-13T05:25:40.244Z,81.99
2018-05-13T05:28:06.582Z,81.27
2018-05-13T05:30:33.021Z,80.55
2018-05-13T05:32:59.421Z,80.47
2018-05-13T05:35:25.771Z,82.25
2018-05-13T05:37:52.223Z,82.35
2018-05-13T05:40:18.563Z,82.09
2018-05-13T05:42:45.045Z,82.67
2018-05-13T05:45:11.391Z,83.76
2018-05-13T05:47:37.804Z,83.74
2018-05-13T05:50:04.129Z,83.82
2018-05-13T05:52:30.621Z,83.80
2018-05-13T05:54:57.801Z,84.00
2018-05-13T05:57:24.167Z,83.40
2018-05-13T05:59:50.642Z,82.88
2018-05-13T06:02:17.122Z,81.71
2018-05-13T06:04:43.461Z,81.43
2018-05-13T06:07:09.798Z,80.74
2018-05-13T06:09:36.241Z,80.00
2018-05-13T06:12:02.576Z,81.29
2018-05-13T06:14:28.914Z,80.63
2018-05-13T06:16:55.295Z,78.79
2018-05-13T06:19:21.663Z,76.70
2018-05-13T06:21:47.989Z,75.22
2018-05-13T06:24:14.321Z,75.01
2018-05-13T06:26:40.660Z,75.83
2018-05-13T06:29:07.014Z,75.60
2018-05-13T06:31:33.352Z,75.56
2018-05-13T06:33:59.646Z,76.79
2018-05-13T06:36:26.397Z,77.19
2018-05-13T06:38:52.868Z,76.93
2018-05-13T06:41:20.002Z,77.18
2018-05-13T06:43:47.106Z,77.37
2018-05-13T06:46:13.461Z,77.09
2018-05-13T06:48:39.879Z,77.43
2018-05-13T06:51:06.378Z,77.05
2018-05-13T06:53:32.542Z,77.00
2018-05-13T06:55:58.888Z,78.86
2018-05-13T06:58:25.270Z,78.93
2018-05-13T07:00:51.662Z,78.55
2018-05-13T07:03:18.757Z,78.74
2018-05-13T07:05:45.124Z,78.70
2018-05-13T07:08:11.512Z,80.08
2018-05-13T07:10:37.922Z,79.12
2018-05-13T07:13:04.470Z,78.74
2018-05-13T07:15:30.846Z,78.19
2018-05-13T07:17:57.242Z,77.50
2018-05-13T07:20:23.629Z,75.86
2018-05-13T07:22:50.809Z,74.50
2018-05-13T07:25:17.673Z,72.91
2018-05-13T07:27:44.019Z,73.48
2018-05-13T07:30:10.379Z,74.14
2018-05-13T07:32:37.506Z,75.53
2018-05-13T07:35:03.952Z,75.54
2018-05-13T07:37:31.928Z,75.62
2018-05-13T07:39:59.042Z,76.62
2018-05-13T07:42:25.366Z,74.96
2018-05-13T07:44:51.734Z,74.20
2018-05-13T07:47:18.192Z,74.22
2018-05-13T07:49:44.612Z,74.71
2018-05-13T07:52:11.759Z,76.45
2018-05-13T07:54:38.890Z,76.07
2018-05-13T07:57:05.252Z,75.74
2018-05-13T07:59:31.620Z,76.36
2018-05-13T08:01:58.010Z,76.79
2018-05-13T08:04:24.427Z,77.05
2018-05-13T08:06:51.528Z,77.35
2018-05-13T08:09:17.954Z,77.64
2018-05-13T08:11:44.463Z,77.17
2018-05-13T08:14:10.959Z,75.95
2018-05-13T08:16:37.327Z,76.12
2018-05-13T08:19:03.652Z,76.14
2018-05-13T08:21:29.951Z,75.51
2018-05-13T08:23:56.400Z,75.00
2018-05-13T08:26:23.481Z,75.00
2018-05-13T08:28:49.862Z,75.13
2018-05-13T08:31:16.198Z,74.84
2018-05-13T08:33:43.287Z,75.02
2018-05-13T08:36:10.166Z,74.81
2018-05-13T08:38:36.503Z,74.67
2018-05-13T08:41:02.894Z,74.51
2018-05-13T08:43:29.284Z,74.34
2018-05-13T08:45:56.398Z,74.02
2018-05-13T08:48:22.789Z,73.10
2018-05-13T08:50:49.165Z,73.99
2018-05-13T08:53:15.536Z,74.13
2018-05-13T08:55:41.970Z,74.12
2018-05-13T08:58:08.340Z,74.46
2018-05-13T09:00:34.678Z,74.73
2018-05-13T09:03:01.010Z,75.42
2018-05-13T09:05:27.413Z,75.22
2018-05-13T09:07:54.011Z,75.99
2018-05-13T09:10:20.457Z,75.34
2018-05-13T09:12:46.778Z,75.41
2018-05-13T09:15:13.657Z,74.74
2018-05-13T09:17:40.023Z,74.63
2018-05-13T09:20:06.454Z,74.95
2018-05-13T09:22:32.760Z,74.51
2018-05-13T09:24:59.141Z,74.42
2018-05-13T09:27:26.244Z,74.20
2018-05-13T09:29:52.658Z,74.06
2018-05-13T09:32:19.031Z,73.87
2018-05-13T09:34:45.418Z,73.24
2018-05-13T09:37:11.977Z,72.31
2018-05-13T09:39:38.356Z,72.26
2018-05-13T09:42:04.659Z,71.03
2018-05-13T09:44:31.010Z,70.75
2018-05-13T09:46:57.361Z,70.92
2018-05-13T09:49:23.720Z,68.94
2018-05-13T09:51:50.094Z,69.25
2018-05-13T09:54:17.359Z,70.02
2018-05-13T09:56:43.712Z,67.16
2018-05-13T09:59:10.153Z,67.25
2018-05-13T10:01:36.502Z,67.86
2018-05-13T10:04:07.034Z,68.43
2018-05-13T10:06:33.394Z,68.36
2018-05-13T10:09:00.531Z,67.58
2018-05-13T10:11:26.968Z,67.44
2018-05-13T10:13:54.071Z,66.22
2018-05-13T10:16:20.495Z,66.28
2018-05-13T10:18:47.033Z,65.84
2018-05-13T10:21:13.922Z,66.51
2018-05-13T10:23:40.249Z,66.17
2018-05-13T10:26:06.787Z,64.47
2018-05-13T10:28:33.149Z,64.37
2018-05-13T10:30:59.536Z,63.46
2018-05-13T10:33:25.911Z,62.72
2018-05-13T10:35:52.246Z,62.11
2018-05-13T10:38:18.697Z,61.31
2018-05-13T10:40:44.998Z,60.68
2018-05-13T10:43:11.401Z,61.54
2018-05-13T10:45:37.813Z,60.91
2018-05-13T10:48:04.296Z,61.03
2018-05-13T10:50:30.713Z,60.60
2018-05-13T10:52:57.843Z,60.49
2018-05-13T10:55:24.233Z,61.93
2018-05-13T10:57:50.659Z,63.37
2018-05-13T11:00:16.987Z,64.31
2018-05-13T11:02:43.426Z,64.88
2018-05-13T11:05:10.701Z,65.63
2018-05-13T11:07:37.102Z,66.93
2018-05-13T11:10:03.546Z,66.40
2018-05-13T11:12:29.959Z,66.93
2018-05-13T11:14:56.371Z,66.70
2018-05-13T11:17:23.565Z,67.56
2018-05-13T11:19:49.950Z,68.15
2018-05-13T11:22:16.254Z,67.21
2018-05-13T11:24:42.619Z,68.04
2018-05-13T11:27:09.099Z,68.48
2018-05-13T11:29:35.525Z,68.71
2018-05-13T11:32:02.195Z,69.37
2018-05-13T11:34:28.605Z,70.46
2018-05-13T11:36:55.006Z,71.31
2018-05-13T11:39:21.392Z,71.86
2018-05-13T11:41:48.686Z,71.94
2018-05-13T11:44:15.159Z,71.91
2018-05-13T11:46:41.595Z,72.35
2018-05-13T11:49:07.963Z,72.67
2018-05-13T11:51:34.404Z,73.06
2018-05-13T11:54:00.888Z,72.86
2018-05-13T11:56:27.800Z,74.01
2018-05-13T11:58:54.229Z,74.21
2018-05-13T12:01:20.576Z,74.30
2018-05-13T12:03:49.483Z,74.69
2018-05-13T12:06:15.942Z,74.56
2018-05-13T12:08:47.434Z,73.96
2018-05-13T12:11:13.870Z,73.90
2018-05-13T12:13:40.265Z,74.52
2018-05-13T12:16:10.933Z,75.60
2018-05-13T12:18:37.427Z,77.15
2018-05-13T12:21:03.813Z,78.49
2018-05-13T12:23:30.724Z,77.96
2018-05-13T12:25:57.050Z,78.88
2018-05-13T12:28:24.850Z,79.34
2018-05-13T12:30:51.251Z,78.87
2018-05-13T12:33:17.712Z,79.60
2018-05-13T12:35:44.394Z,80.04
2018-05-13T12:38:10.780Z,79.47
2018-05-13T12:40:37.286Z,79.56
2018-05-13T12:43:03.670Z,78.95
2018-05-13T12:45:30.944Z,78.46
2018-05-13T12:47:58.029Z,77.68
2018-05-13T12:50:24.405Z,77.38
2018-05-13T12:52:50.882Z,76.56
2018-05-13T12:55:17.262Z,76.79
2018-05-13T12:57:44.424Z,76.66
2018-05-13T13:00:11.265Z,77.56
2018-05-13T13:02:37.636Z,77.46
2018-05-13T13:05:03.998Z,76.97
2018-05-13T13:07:30.391Z,76.20
2018-05-13T13:09:56.769Z,76.23
2018-05-13T13:12:23.133Z,75.13
2018-05-13T13:14:49.550Z,76.43
2018-05-13T13:17:15.877Z,76.58
2018-05-13T13:19:42.238Z,78.14
2018-05-13T13:22:08.710Z,77.15
2018-05-13T13:24:35.750Z,77.62
2018-05-13T13:27:02.969Z,79.45
2018-05-13T13:29:29.418Z,79.99
2018-05-13T13:31:55.783Z,79.09
2018-05-13T13:34:26.143Z,78.39
2018-05-13T13:36:52.500Z,77.45
2018-05-13T13:39:19.055Z,77.17
2018-05-13T13:41:45.417Z,76.93
2018-05-13T13:44:12.626Z,76.90
2018-05-13T13:46:39.002Z,76.47
2018-05-13T13:49:05.440Z,76.17
2018-05-13T13:51:32.623Z,76.80
2018-05-13T13:53:59.081Z,77.75
2018-05-13T13:56:25.446Z,78.44
2018-05-13T13:58:52.563Z,77.68
2018-05-13T14:01:19.325Z,78.60
2018-05-13T14:03:46.396Z,77.85
2018-05-13T14:06:12.748Z,78.27
2018-05-13T14:08:39.277Z,78.39
2018-05-13T14:11:05.683Z,79.08
2018-05-13T14:13:32.019Z,79.10
2018-05-13T14:15:58.356Z,79.45
2018-05-13T14:18:24.792Z,79.26
2018-05-13T14:20:51.352Z,79.27
2018-05-13T14:23:18.813Z,79.11
2018-05-13T14:25:45.218Z,79.60
2018-05-13T14:28:11.684Z,79.03
2018-05-13T14:30:38.228Z,79.71
2018-05-13T14:33:04.666Z,79.37
2018-05-13T14:35:31.065Z,80.23
2018-05-13T14:37:57.565Z,79.64
2018-05-13T14:40:23.936Z,79.20
2018-05-13T14:42:50.342Z,79.30
2018-05-13T14:45:16.830Z,80.17
2018-05-13T14:47:43.860Z,79.86
2018-05-13T14:50:10.178Z,79.53
2018-05-13T14:52:36.657Z,79.61
2018-05-13T14:55:03.107Z,78.45
2018-05-13T14:57:29.518Z,78.47
2018-05-13T14:59:55.962Z,78.77
2018-05-13T15:02:22.420Z,79.00
2018-05-13T15:04:49.301Z,79.13
2018-05-13T15:07:28.967Z,78.53
2018-05-13T15:09:55.429Z,78.00
2018-05-13T15:12:22.729Z,77.35
2018-05-13T15:14:49.151Z,77.13
2018-05-13T15:17:15.525Z,77.01
2018-05-13T15:19:41.952Z,76.90
2018-05-13T15:22:08.488Z,76.78
2018-05-13T15:24:34.894Z,76.99
2018-05-13T15:27:02.128Z,77.13
2018-05-13T15:29:29.239Z,77.24
2018-05-13T15:31:55.684Z,77.54
2018-05-13T15:34:22.110Z,77.18
2018-05-13T15:36:48.501Z,77.55
2018-05-13T15:39:14.952Z,76.76
2018-05-13T15:41:41.361Z,76.57
2018-05-13T15:44:08.593Z,76.30
2018-05-13T15:46:34.991Z,76.54
2018-05-13T15:49:01.502Z,75.85
2018-05-13T15:51:27.757Z,75.61
2018-05-13T15:53:54.181Z,74.63
2018-05-13T15:56:20.691Z,74.58
2018-05-13T15:58:47.818Z,74.01
2018-05-13T16:01:14.908Z,74.59
2018-05-13T16:03:41.435Z,74.33
2018-05-13T16:06:07.861Z,74.29
2018-05-13T16:08:34.262Z,74.80
2018-05-13T16:11:00.795Z,75.44
2018-05-13T16:13:27.938Z,76.85
2018-05-13T16:15:55.128Z,75.97
2018-05-13T16:18:21.523Z,76.14
2018-05-13T16:20:49.326Z,75.20
2018-05-13T16:23:15.661Z,74.61
2018-05-13T16:25:42.146Z,75.33
2018-05-13T16:28:08.743Z,74.83
2018-05-13T16:30:35.277Z,75.87
2018-05-13T16:33:01.733Z,75.35
2018-05-13T16:35:28.119Z,75.11
2018-05-13T16:37:54.615Z,74.29
2018-05-13T16:40:21.712Z,74.87
2018-05-13T16:42:48.103Z,76.87
2018-05-13T16:45:14.492Z,77.05
2018-05-13T16:47:40.953Z,77.67
2018-05-13T16:50:08.027Z,77.76
2018-05-13T16:52:34.524Z,77.66
2018-05-13T16:55:00.929Z,78.82
2018-05-13T16:57:27.459Z,79.20
2018-05-13T16:59:53.910Z,79.24
2018-05-13T17:02:20.755Z,78.91
2018-05-13T17:04:47.134Z,79.04
2018-05-13T17:07:13.550Z,78.95
2018-05-13T17:09:40.963Z,78.91
2018-05-13T17:12:07.275Z,79.40
2018-05-13T17:14:33.814Z,79.41
2018-05-13T17:17:00.171Z,79.98
2018-05-13T17:19:26.667Z,79.99
2018-05-13T17:21:53.317Z,78.61
2018-05-13T17:24:20.026Z,78.27
2018-05-13T17:26:46.485Z,78.74
2018-05-13T17:29:12.988Z,78.60
2018-05-13T17:31:39.563Z,78.78
2018-05-13T17:34:06.319Z,79.13
2018-05-13T17:36:32.938Z,79.31
2018-05-13T17:38:59.431Z,79.09
2018-05-13T17:41:26.002Z,78.97
2018-05-13T17:43:52.553Z,78.96
2018-05-13T17:46:18.975Z,79.35
2018-05-13T17:48:46.499Z,80.08
2018-05-13T17:51:13.060Z,80.44
2018-05-13T17:53:39.686Z,80.65
2018-05-13T17:56:06.200Z,81.24
2018-05-13T17:58:33.669Z,80.97
2018-05-13T18:01:00.580Z,81.50
2018-05-13T18:03:27.116Z,81.41
2018-05-13T18:05:53.661Z,81.98
2018-05-13T18:08:20.567Z,81.54
2018-05-13T18:10:47.118Z,81.64
2018-05-13T18:13:13.610Z,82.11
2018-05-13T18:15:40.228Z,82.38
2018-05-13T18:18:06.874Z,82.44
2018-05-13T18:20:33.474Z,82.16
2018-05-13T18:22:59.875Z,82.07
2018-05-13T18:25:26.290Z,81.98
2018-05-13T18:27:52.753Z,82.45
2018-05-13T18:30:19.211Z,83.47
2018-05-13T18:32:45.750Z,83.48
2018-05-13T18:35:12.872Z,84.15
2018-05-13T18:37:40.070Z,84.19
2018-05-13T18:40:07.291Z,84.07
2018-05-13T18:42:33.751Z,84.10
2018-05-13T18:45:00.259Z,84.27
2018-05-13T18:47:26.875Z,84.59
2018-05-13T18:49:54.131Z,84.46
2018-05-13T18:52:22.662Z,84.81
2018-05-13T18:54:49.126Z,85.51
2018-05-13T18:57:15.748Z,85.08
2018-05-13T18:59:42.559Z,85.46
2018-05-13T19:02:09.239Z,85.75
2018-05-13T19:04:35.653Z,85.29
2018-05-13T19:07:02.184Z,85.24
2018-05-13T19:09:29.000Z,84.88
2018-05-13T19:11:55.727Z,84.28
2018-05-13T19:14:22.852Z,84.42
2018-05-13T19:16:50.069Z,84.67
2018-05-13T19:19:16.549Z,84.84
2018-05-13T19:21:42.970Z,84.39
2018-05-13T19:24:10.187Z,84.36
2018-05-13T19:26:36.651Z,84.83
2018-05-13T19:29:03.454Z,84.79
2018-05-13T19:31:30.162Z,84.20
2018-05-13T19:33:56.620Z,84.15
2018-05-13T19:36:23.167Z,84.14
2018-05-13T19:38:49.711Z,84.00
2018-05-13T19:41:16.370Z,84.03
2018-05-13T19:47:19.343Z,80.23
2018-05-13T19:49:46.165Z,83.43
2018-05-13T19:52:12.615Z,84.94
2018-05-13T19:54:39.021Z,84.93
2018-05-13T19:57:05.427Z,85.93
2018-05-13T19:59:31.758Z,86.43
2018-05-13T20:01:58.117Z,86.22
2018-05-13T20:04:24.443Z,85.70
2018-05-13T20:06:50.842Z,86.73
2018-05-13T20:09:18.012Z,85.39
2018-05-13T20:11:44.357Z,86.12
2018-05-13T20:14:10.839Z,86.92
2018-05-13T20:16:37.210Z,87.18
2018-05-13T20:19:03.643Z,87.01
2018-05-13T20:21:30.046Z,88.28
2018-05-13T20:23:57.115Z,87.72
2018-05-13T20:26:23.448Z,87.66
2018-05-13T20:28:49.788Z,88.46
2018-05-13T20:31:16.195Z,87.59
2018-05-13T20:33:42.575Z,87.27
2018-05-13T20:36:08.909Z,88.21
2018-05-13T20:38:35.266Z,87.54
2018-05-13T20:41:02.440Z,87.50
2018-05-13T20:43:28.858Z,90.15
2018-05-13T20:45:55.222Z,91.15
2018-05-13T20:48:21.906Z,91.44
2018-05-13T20:50:48.300Z,91.05
2018-05-13T20:53:14.660Z,92.20
2018-05-13T20:55:41.094Z,92.41
2018-05-13T20:58:07.455Z,93.23
2018-05-13T21:00:33.849Z,92.12
2018-05-13T21:03:00.211Z,91.62
2018-05-13T21:05:27.382Z,91.78
2018-05-13T21:07:53.731Z,91.88
2018-05-13T21:10:20.100Z,93.03
2018-05-13T21:12:46.478Z,93.23
2018-05-13T21:15:12.894Z,93.67
2018-05-13T21:17:39.318Z,91.98
2018-05-13T21:20:05.752Z,93.52
2018-05-13T21:22:32.097Z,94.19
2018-05-13T21:24:58.423Z,94.42
2018-05-13T21:27:24.782Z,95.87
2018-05-13T21:29:51.122Z,95.70
2018-05-13T21:32:18.215Z,96.07
2018-05-13T21:34:45.314Z,96.21
2018-05-13T21:37:11.677Z,97.22
2018-05-13T21:39:38.721Z,95.69
2018-05-13T21:42:05.869Z,96.44
2018-05-13T21:44:32.959Z,96.83
2018-05-13T21:46:59.376Z,98.42
2018-05-13T21:49:25.678Z,98.87
2018-05-13T21:51:52.794Z,99.62
2018-05-13T21:54:19.158Z,99.64
2018-05-13T21:56:46.298Z,98.85
2018-05-13T21:59:12.622Z,98.99
2018-05-13T22:01:38.964Z,99.72
2018-05-13T22:04:06.148Z,99.68
2018-05-13T22:06:32.458Z,99.91
2018-05-13T22:08:59.517Z,99.58
2018-05-13T22:11:25.828Z,98.67
2018-05-13T22:13:52.893Z,97.74
2018-05-13T22:16:19.665Z,98.34
2018-05-13T22:18:46.008Z,98.51
2018-05-13T22:21:12.356Z,98.82
2018-05-13T22:23:39.475Z,98.69
2018-05-13T22:26:05.774Z,99.47
2018-05-13T22:28:32.106Z,99.35
2018-05-13T22:30:58.453Z,99.01
2018-05-13T22:33:24.845Z,99.37
2018-05-13T22:35:51.898Z,99.38
2018-05-13T22:38:18.330Z,98.74
2018-05-13T22:40:44.677Z,98.84
2018-05-13T22:43:11.012Z,98.26
2018-05-13T22:45:37.462Z,98.39
2018-05-13T22:48:03.861Z,98.84
2018-05-13T22:50:30.200Z,98.88
2018-05-13T22:52:56.539Z,98.77
2018-05-13T22:55:23.307Z,99.22
2018-05-13T22:57:49.612Z,99.11
2018-05-13T23:00:16.005Z,98.53
2018-05-13T23:02:43.073Z,98.66
2018-05-13T23:05:09.398Z,98.29
2018-05-13T23:07:35.829Z,98.25
2018-05-13T23:10:02.252Z,98.55
2018-05-13T23:12:28.597Z,98.35
2018-05-13T23:14:54.930Z,98.16
2018-05-13T23:17:21.325Z,97.79
2018-05-13T23:19:48.398Z,97.82
2018-05-13T23:22:33.025Z,97.81
2018-05-13T23:24:59.345Z,98.33
2018-05-13T23:27:25.973Z,98.78
2018-05-13T23:29:52.349Z,99.46
2018-05-13T23:32:18.663Z,99.17
2018-05-13T23:34:45.762Z,98.88
2018-05-13T23:37:12.077Z,98.54
2018-05-13T23:39:38.419Z,98.40
2018-05-13T23:42:04.742Z,99.02
2018-05-13T23:44:31.065Z,99.11
2018-05-13T23:46:57.385Z,99.21
2018-05-13T23:49:23.706Z,98.79
2018-05-13T23:51:50.169Z,98.87
2018-05-13T23:54:16.502Z,98.89
2018-05-13T23:56:42.895Z,99.57
2018-05-13T23:59:09.198Z,99.73
